createdAt,value
2022-10-22T00:01:00.370Z,97018.00
2022-10-22T00:03:27.083Z,97017.00
2022-10-22T00:05:53.609Z,97020.31
2022-10-22T00:08:20.051Z,97014.56
2022-10-22T00:10:46.447Z,97011.50
2022-10-22T00:13:13.165Z,97003.63
2022-10-22T00:15:39.594Z,97000.75
2022-10-22T00:18:05.960Z,97010.28
2022-10-22T00:20:34.706Z,97006.13
2022-10-22T00:23:01.063Z,97003.75
2022-10-22T00:25:27.483Z,97007.38
2022-10-22T00:27:53.918Z,97009.00
2022-10-22T00:30:20.251Z,97009.81
2022-10-22T00:32:46.665Z,97015.34
2022-10-22T00:35:13.402Z,97003.78
2022-10-22T00:37:39.775Z,97019.47
2022-10-22T00:40:06.482Z,97013.13
2022-10-22T00:42:32.896Z,97009.28
2022-10-22T00:45:15.800Z,97015.06
2022-10-22T00:47:42.132Z,97023.06
2022-10-22T00:50:12.938Z,97009.41
2022-10-22T00:52:39.943Z,97004.84
2022-10-22T00:55:07.026Z,96999.91
2022-10-22T00:57:34.725Z,97002.09
2022-10-22T01:00:01.140Z,97011.19
2022-10-22T01:02:27.735Z,97015.31
2022-10-22T01:04:54.035Z,97014.78
2022-10-22T01:07:24.532Z,97020.72
2022-10-22T01:09:50.813Z,97026.91
2022-10-22T01:12:32.376Z,97018.91
2022-10-22T01:15:07.882Z,97023.34
2022-10-22T01:17:40.084Z,97013.28
2022-10-22T01:20:12.567Z,97016.84
2022-10-22T01:22:41.961Z,97013.94
2022-10-22T01:25:12.175Z,97013.81
2022-10-22T01:27:53.130Z,97004.59
2022-10-22T01:30:20.177Z,97007.88
2022-10-22T01:32:50.008Z,97009.13
2022-10-22T01:35:19.136Z,97007.59
2022-10-22T01:37:50.772Z,97009.81
2022-10-22T01:40:18.260Z,97009.69
2022-10-22T01:42:54.248Z,97026.50
2022-10-22T01:45:21.155Z,97027.88
2022-10-22T01:47:50.455Z,97025.97
2022-10-22T01:50:23.557Z,97026.91
2022-10-22T01:52:49.882Z,97017.41
2022-10-22T01:55:25.356Z,97017.53
2022-10-22T01:58:10.129Z,97019.34
2022-10-22T02:00:39.727Z,97024.84
2022-10-22T02:03:10.830Z,97012.44
2022-10-22T02:05:46.038Z,97027.31
2022-10-22T02:08:15.648Z,97040.41
2022-10-22T02:10:43.631Z,97054.19
2022-10-22T02:13:12.340Z,97055.59
2022-10-22T02:15:39.448Z,97064.38
2022-10-22T02:18:09.172Z,97060.00
2022-10-22T02:20:38.640Z,97065.25
2022-10-22T02:23:05.126Z,97061.91
2022-10-22T02:25:35.075Z,97056.94
2022-10-22T02:28:07.404Z,97057.22
2022-10-22T02:30:35.901Z,97049.06
2022-10-22T02:33:20.710Z,97057.09
2022-10-22T02:35:48.717Z,97063.00
2022-10-22T02:38:15.240Z,97072.94
2022-10-22T02:40:41.673Z,97073.63
2022-10-22T02:43:08.101Z,97074.56
2022-10-22T02:45:36.786Z,97075.94
2022-10-22T02:48:03.161Z,97081.03
2022-10-22T02:50:29.514Z,97083.66
2022-10-22T02:52:55.907Z,97073.75
2022-10-22T02:55:22.517Z,97082.41
2022-10-22T02:57:48.822Z,97096.91
2022-10-22T03:00:15.720Z,97096.38
2022-10-22T03:02:42.029Z,97112.63
2022-10-22T03:05:08.654Z,97120.34
2022-10-22T03:07:35.290Z,97131.25
2022-10-22T03:10:01.617Z,97137.88
2022-10-22T03:12:27.937Z,97147.13
2022-10-22T03:14:54.221Z,97146.00
2022-10-22T03:17:20.580Z,97153.47
2022-10-22T03:19:49.375Z,97149.56
2022-10-22T03:22:19.137Z,97165.06
2022-10-22T03:24:48.576Z,97172.50
2022-10-22T03:27:16.263Z,97179.03
2022-10-22T03:29:42.821Z,97185.13
2022-10-22T03:32:09.241Z,97186.59
2022-10-22T03:34:35.557Z,97191.31
2022-10-22T03:37:02.204Z,97191.50
2022-10-22T03:39:31.326Z,97189.13
2022-10-22T03:41:57.901Z,97188.16
2022-10-22T03:44:24.655Z,97189.81
2022-10-22T03:46:50.970Z,97188.59
2022-10-22T03:49:17.302Z,97183.91
2022-10-22T03:51:43.802Z,97175.78
2022-10-22T03:54:10.153Z,97182.81
2022-10-22T03:56:36.461Z,97183.50
2022-10-22T03:59:03.598Z,97172.91
2022-10-22T04:01:32.438Z,97177.03
2022-10-22T04:03:59.809Z,97173.44
2022-10-22T04:06:26.111Z,97175.09
2022-10-22T04:08:52.524Z,97170.19
2022-10-22T04:11:18.968Z,97172.09
2022-10-22T04:13:45.270Z,97168.47
2022-10-22T04:16:13.190Z,97165.72
2022-10-22T04:18:40.455Z,97163.53
2022-10-22T04:21:07.791Z,97166.25
2022-10-22T04:23:34.167Z,97160.63
2022-10-22T04:26:01.732Z,97166.84
2022-10-22T04:28:28.073Z,97172.63
2022-10-22T04:30:54.414Z,97178.69
2022-10-22T04:33:21.148Z,97182.16
2022-10-22T04:35:47.572Z,97187.25
2022-10-22T04:38:13.946Z,97205.47
2022-10-22T04:40:40.287Z,97202.63
2022-10-22T04:43:06.625Z,97200.22
2022-10-22T04:45:33.506Z,97198.41
2022-10-22T04:47:59.875Z,97187.72
2022-10-22T04:50:26.395Z,97182.19
2022-10-22T04:52:52.794Z,97180.38
2022-10-22T04:55:19.222Z,97191.72
2022-10-22T04:57:48.102Z,97182.19
2022-10-22T05:00:16.588Z,97185.31
2022-10-22T05:02:44.694Z,97196.91
2022-10-22T05:05:11.977Z,97203.16
2022-10-22T05:07:38.655Z,97201.38
2022-10-22T05:10:05.574Z,97200.28
2022-10-22T05:12:35.102Z,97207.72
2022-10-22T05:15:01.746Z,97215.47
2022-10-22T05:17:28.095Z,97206.66
2022-10-22T05:19:54.398Z,97199.06
2022-10-22T05:22:20.806Z,97199.75
2022-10-22T05:24:49.007Z,97205.81
2022-10-22T05:27:15.408Z,97197.28
2022-10-22T05:29:41.805Z,97199.91
2022-10-22T05:32:08.214Z,97197.81
2022-10-22T05:34:36.110Z,97194.75
2022-10-22T05:37:02.529Z,97201.00
2022-10-22T05:39:28.952Z,97216.88
2022-10-22T05:41:55.375Z,97214.09
2022-10-22T05:44:22.013Z,97212.75
2022-10-22T05:46:48.402Z,97218.25
2022-10-22T05:49:15.444Z,97225.16
2022-10-22T05:51:41.881Z,97227.91
2022-10-22T05:54:08.697Z,97231.66
2022-10-22T05:56:35.519Z,97232.91
2022-10-22T06:01:31.421Z,97244.38
2022-10-22T06:03:59.064Z,97252.81
2022-10-22T06:06:37.093Z,97252.81
2022-10-22T06:09:12.371Z,97250.56
2022-10-22T06:11:38.806Z,97259.97
2022-10-22T06:14:05.196Z,97265.91
2022-10-22T06:16:31.898Z,97273.50
2022-10-22T06:19:02.110Z,97273.38
2022-10-22T06:21:29.178Z,97276.00
2022-10-22T06:23:56.152Z,97276.28
2022-10-22T06:26:22.487Z,97280.97
2022-10-22T06:28:48.804Z,97283.88
2022-10-22T06:31:15.195Z,97276.00
2022-10-22T06:33:44.255Z,97274.06
2022-10-22T06:36:18.110Z,97273.22
2022-10-22T06:38:44.503Z,97279.03
2022-10-22T06:41:12.637Z,97287.31
2022-10-22T06:43:39.549Z,97284.16
2022-10-22T06:46:07.398Z,97289.13
2022-10-22T06:48:37.809Z,97298.78
2022-10-22T06:51:05.711Z,97300.03
2022-10-22T06:53:32.374Z,97298.25
2022-10-22T06:55:58.744Z,97299.34
2022-10-22T06:58:25.158Z,97307.63
2022-10-22T07:01:00.313Z,97309.44
2022-10-22T07:03:26.789Z,97317.16
2022-10-22T07:05:53.135Z,97320.47
2022-10-22T07:08:19.509Z,97322.16
2022-10-22T07:10:45.862Z,97314.97
2022-10-22T07:13:12.276Z,97324.06
2022-10-22T07:15:38.638Z,97337.59
2022-10-22T07:18:05.103Z,97334.84
2022-10-22T07:20:31.483Z,97339.16
2022-10-22T07:22:57.832Z,97341.19
2022-10-22T07:25:24.247Z,97341.91
2022-10-22T07:27:50.638Z,97348.97
2022-10-22T07:30:17.092Z,97336.53
2022-10-22T07:32:43.461Z,97337.06
2022-10-22T07:35:09.869Z,97340.94
2022-10-22T07:37:36.186Z,97340.09
2022-10-22T07:40:03.941Z,97344.94
2022-10-22T07:45:02.189Z,97340.66
2022-10-22T07:47:28.594Z,97347.69
2022-10-22T07:49:54.904Z,97358.75
2022-10-22T07:52:21.509Z,97361.69
2022-10-22T07:54:47.864Z,97372.47
2022-10-22T07:57:14.326Z,97373.72
2022-10-22T07:59:40.645Z,97372.19
2022-10-22T08:02:07.079Z,97377.31
2022-10-22T08:04:33.439Z,97379.41
2022-10-22T08:07:00.482Z,97385.72
2022-10-22T08:09:29.114Z,97400.91
2022-10-22T08:11:55.545Z,97399.81
2022-10-22T08:14:21.883Z,97395.13
2022-10-22T08:16:48.441Z,97401.22
2022-10-22T08:19:18.739Z,97398.19
2022-10-22T08:21:46.035Z,97405.19
2022-10-22T08:24:12.813Z,97411.44
2022-10-22T08:26:39.451Z,97415.88
2022-10-22T08:29:06.021Z,97422.75
2022-10-22T08:31:32.461Z,97419.72
2022-10-22T08:33:58.863Z,97417.91
2022-10-22T08:36:25.280Z,97424.84
2022-10-22T08:38:51.722Z,97428.59
2022-10-22T08:41:19.712Z,97433.56
2022-10-22T08:43:46.063Z,97429.13
2022-10-22T08:46:18.475Z,97438.53
2022-10-22T08:48:53.849Z,97434.63
2022-10-22T08:51:25.723Z,97437.66
2022-10-22T08:54:01.453Z,97448.34
2022-10-22T08:56:28.922Z,97456.78
2022-10-22T08:59:06.073Z,97463.97
2022-10-22T09:01:34.610Z,97467.00
2022-10-22T09:04:05.742Z,97463.56
2022-10-22T09:06:33.215Z,97470.31
2022-10-22T09:09:01.131Z,97461.50
2022-10-22T09:11:32.018Z,97472.41
2022-10-22T09:13:59.532Z,97474.09
2022-10-22T09:16:31.893Z,97474.94
2022-10-22T09:19:04.619Z,97478.09
2022-10-22T09:21:30.953Z,97482.56
2022-10-22T09:24:04.348Z,97486.16
2022-10-22T09:26:32.040Z,97493.91
2022-10-22T09:29:00.110Z,97483.53
2022-10-22T09:31:27.045Z,97488.53
2022-10-22T09:33:53.449Z,97496.66
2022-10-22T09:36:22.333Z,97490.56
2022-10-22T09:38:52.759Z,97487.81
2022-10-22T09:41:20.542Z,97483.25
2022-10-22T09:43:47.756Z,97483.25
2022-10-22T09:46:17.059Z,97480.47
2022-10-22T09:48:47.443Z,97484.22
2022-10-22T09:51:13.842Z,97487.81
2022-10-22T09:53:45.008Z,97480.06
2022-10-22T09:56:17.503Z,97478.97
2022-10-22T09:58:45.041Z,97489.47
2022-10-22T10:01:17.957Z,97489.75
2022-10-22T10:03:44.343Z,97497.06
2022-10-22T10:06:12.443Z,97509.28
2022-10-22T10:08:38.862Z,97501.66
2022-10-22T10:11:12.230Z,97499.72
2022-10-22T10:13:38.712Z,97499.03
2022-10-22T10:16:08.599Z,97501.94
2022-10-22T10:18:53.711Z,97506.50
2022-10-22T10:21:26.160Z,97509.81
2022-10-22T10:23:52.492Z,97515.22
2022-10-22T10:26:27.018Z,97512.31
2022-10-22T10:29:10.911Z,97507.34
2022-10-22T10:31:55.891Z,97508.69
2022-10-22T10:34:31.437Z,97500.84
2022-10-22T10:37:17.277Z,97501.09
2022-10-22T10:39:43.587Z,97506.34
2022-10-22T10:42:28.337Z,97506.78
2022-10-22T10:45:02.584Z,97501.38
2022-10-22T10:47:35.084Z,97498.34
2022-10-22T10:50:20.438Z,97504.16
2022-10-22T10:53:07.015Z,97499.72
2022-10-22T10:55:41.920Z,97495.53
2022-10-22T10:58:14.408Z,97500.50
2022-10-22T11:01:07.205Z,97505.34
2022-10-22T11:03:52.475Z,97500.34
2022-10-22T11:06:25.361Z,97510.13
2022-10-22T11:08:57.788Z,97512.75
2022-10-22T11:11:31.523Z,97506.78
2022-10-22T11:14:02.035Z,97500.38
2022-10-22T11:16:44.945Z,97495.81
2022-10-22T11:19:22.696Z,97501.19
2022-10-22T11:22:12.194Z,97497.56
2022-10-22T11:24:50.637Z,97506.94
2022-10-22T11:27:32.285Z,97511.91
2022-10-22T11:30:01.768Z,97518.19
2022-10-22T11:32:28.320Z,97512.34
2022-10-22T11:34:56.019Z,97508.78
2022-10-22T11:37:24.631Z,97512.00
2022-10-22T11:39:53.620Z,97505.44
2022-10-22T11:42:24.913Z,97506.41
2022-10-22T11:45:03.154Z,97510.41
2022-10-22T11:47:32.924Z,97504.28
2022-10-22T11:50:16.575Z,97504.97
2022-10-22T11:52:50.087Z,97508.75
2022-10-22T11:55:35.061Z,97505.09
2022-10-22T11:58:02.228Z,97503.72
2022-10-22T12:00:35.611Z,97500.06
2022-10-22T12:03:16.069Z,97503.03
2022-10-22T12:05:43.268Z,97507.63
2022-10-22T12:08:13.448Z,97507.09
2022-10-22T12:10:57.394Z,97513.25
2022-10-22T12:13:25.088Z,97506.44
2022-10-22T12:15:53.355Z,97498.28
2022-10-22T12:18:23.410Z,97495.59
2022-10-22T12:20:50.946Z,97495.56
2022-10-22T12:23:17.377Z,97497.16
2022-10-22T12:25:43.818Z,97498.09
2022-10-22T12:28:12.158Z,97487.63
2022-10-22T12:30:38.850Z,97486.44
2022-10-22T12:33:06.650Z,97490.13
2022-10-22T12:35:35.632Z,97485.78
2022-10-22T12:38:02.918Z,97483.22
2022-10-22T12:40:30.472Z,97479.25
2022-10-22T12:43:00.777Z,97482.34
2022-10-22T12:45:28.509Z,97486.00
2022-10-22T12:47:58.998Z,97483.34
2022-10-22T12:50:31.246Z,97489.91
2022-10-22T12:52:57.602Z,97494.81
2022-10-22T12:55:27.838Z,97486.66
2022-10-22T12:57:54.197Z,97482.53
2022-10-22T13:00:21.927Z,97480.06
2022-10-22T13:02:48.410Z,97480.22
2022-10-22T13:05:17.872Z,97487.00
2022-10-22T13:07:46.832Z,97486.66
2022-10-22T13:10:21.628Z,97484.09
2022-10-22T13:12:53.905Z,97487.31
2022-10-22T13:15:22.172Z,97490.06
2022-10-22T13:17:49.793Z,97487.00
2022-10-22T13:20:18.384Z,97483.06
2022-10-22T13:23:02.638Z,97481.72
2022-10-22T13:25:30.081Z,97482.06
2022-10-22T13:27:59.602Z,97485.38
2022-10-22T13:30:28.001Z,97489.09
2022-10-22T13:33:05.589Z,97482.94
2022-10-22T13:35:33.929Z,97479.28
2022-10-22T13:38:03.684Z,97478.75
2022-10-22T13:40:30.098Z,97482.50
2022-10-22T13:42:56.431Z,97488.34
2022-10-22T13:45:23.448Z,97473.19
2022-10-22T13:47:51.953Z,97472.56
2022-10-22T13:50:19.299Z,97485.53
2022-10-22T13:52:47.710Z,97466.91
2022-10-22T13:55:15.709Z,97475.81
2022-10-22T13:57:42.124Z,97478.47
2022-10-22T14:00:11.477Z,97466.28
2022-10-22T14:02:37.800Z,97466.41
2022-10-22T14:05:08.486Z,97467.44
2022-10-22T14:07:35.603Z,97469.75
2022-10-22T14:10:02.313Z,97470.88
2022-10-22T14:12:28.747Z,97473.66
2022-10-22T14:14:55.090Z,97470.84
2022-10-22T14:17:21.438Z,97478.94
2022-10-22T14:19:49.162Z,97468.31
2022-10-22T14:22:17.145Z,97468.78
2022-10-22T14:24:43.560Z,97458.94
2022-10-22T14:27:13.929Z,97473.25
2022-10-22T14:29:40.708Z,97471.38
2022-10-22T14:32:12.498Z,97473.66
2022-10-22T14:34:38.884Z,97479.00
2022-10-22T14:37:05.255Z,97476.22
2022-10-22T14:39:31.718Z,97476.44
2022-10-22T14:41:58.052Z,97473.25
2022-10-22T14:44:24.400Z,97474.88
2022-10-22T14:46:54.247Z,97477.59
2022-10-22T14:49:20.571Z,97474.06
2022-10-22T14:51:47.233Z,97472.59
2022-10-22T14:54:13.604Z,97476.00
2022-10-22T14:56:39.979Z,97473.19
2022-10-22T14:59:06.307Z,97480.84
2022-10-22T15:01:35.375Z,97480.84
2022-10-22T15:04:01.796Z,97483.47
2022-10-22T15:06:28.110Z,97485.75
2022-10-22T15:08:54.603Z,97487.09
2022-10-22T15:11:22.343Z,97483.59
2022-10-22T15:13:48.707Z,97494.56
2022-10-22T15:16:15.830Z,97499.25
2022-10-22T15:18:42.148Z,97506.84
2022-10-22T15:21:15.379Z,97503.06
2022-10-22T15:23:42.013Z,97498.66
2022-10-22T15:26:08.842Z,97507.66
2022-10-22T15:28:35.993Z,97497.88
2022-10-22T15:31:02.770Z,97505.50
2022-10-22T15:33:29.665Z,97502.41
2022-10-22T15:35:56.575Z,97507.38
2022-10-22T15:41:06.076Z,97515.69
2022-10-22T15:43:32.783Z,97520.22
2022-10-22T15:46:09.804Z,97521.81
2022-10-22T15:48:36.227Z,97524.88
2022-10-22T15:51:07.318Z,97521.75
2022-10-22T15:53:33.648Z,97529.78
2022-10-22T15:56:00.013Z,97536.75
2022-10-22T15:58:28.586Z,97531.91
2022-10-22T16:00:54.968Z,97541.19
2022-10-22T16:03:21.367Z,97542.47
2022-10-22T16:05:54.483Z,97543.84
2022-10-22T16:08:21.250Z,97532.63
2022-10-22T16:10:48.510Z,97539.28
2022-10-22T16:13:15.103Z,97536.25
2022-10-22T16:15:43.914Z,97542.75
2022-10-22T16:18:12.627Z,97532.06
2022-10-22T16:20:39.790Z,97545.91
2022-10-22T16:23:06.175Z,97550.31
2022-10-22T16:25:39.156Z,97556.19
2022-10-22T16:28:05.579Z,97565.28
2022-10-22T16:30:35.879Z,97565.13
2022-10-22T16:33:06.213Z,97556.72
2022-10-22T16:35:32.810Z,97560.38
2022-10-22T16:38:01.577Z,97571.97
2022-10-22T16:40:31.795Z,97575.59
2022-10-22T16:42:58.234Z,97576.50
2022-10-22T16:45:24.591Z,97573.31
2022-10-22T16:47:51.081Z,97573.00
2022-10-22T16:50:19.839Z,97573.41
2022-10-22T16:52:48.755Z,97571.69
2022-10-22T16:55:17.612Z,97585.81
2022-10-22T16:57:44.256Z,97588.56
2022-10-22T17:00:13.683Z,97593.97
2022-10-22T17:02:40.402Z,97589.66
2022-10-22T17:05:07.242Z,97594.88
2022-10-22T17:07:33.649Z,97594.59
2022-10-22T17:10:01.169Z,97591.66
2022-10-22T17:12:27.534Z,97596.47
2022-10-22T17:14:53.884Z,97605.09
2022-10-22T17:17:22.712Z,97608.47
2022-10-22T17:19:49.199Z,97611.34
2022-10-22T17:22:17.697Z,97614.59
2022-10-22T17:24:44.856Z,97616.63
2022-10-22T17:27:11.205Z,97616.25
2022-10-22T17:29:39.964Z,97620.28
2022-10-22T17:32:06.341Z,97626.06
2022-10-22T17:34:33.288Z,97629.38
2022-10-22T17:37:00.285Z,97632.34
2022-10-22T17:39:26.922Z,97632.34
2022-10-22T17:41:53.280Z,97635.25
2022-10-22T17:44:19.658Z,97633.72
2022-10-22T17:46:46.161Z,97635.03
2022-10-22T17:49:15.479Z,97640.13
2022-10-22T17:51:41.961Z,97645.75
2022-10-22T17:54:09.980Z,97642.88
2022-10-22T17:56:37.686Z,97645.97
2022-10-22T17:59:04.333Z,97650.03
2022-10-22T18:01:31.827Z,97643.72
2022-10-22T18:04:02.837Z,97648.00
2022-10-22T18:06:30.017Z,97645.38
2022-10-22T18:08:57.032Z,97645.59
2022-10-22T18:11:24.756Z,97643.09
2022-10-22T18:13:52.080Z,97646.69
2022-10-22T18:16:19.170Z,97643.34
2022-10-22T18:18:47.484Z,97643.91
2022-10-22T18:21:14.934Z,97641.44
2022-10-22T18:23:41.542Z,97652.97
2022-10-22T18:26:07.995Z,97653.63
2022-10-22T18:28:34.923Z,97664.72
2022-10-22T18:31:04.990Z,97659.13
2022-10-22T18:33:31.369Z,97660.97
2022-10-22T18:36:02.496Z,97659.53
2022-10-22T18:38:28.854Z,97664.88
2022-10-22T18:40:55.216Z,97668.56
2022-10-22T18:43:21.573Z,97661.66
2022-10-22T18:45:48.330Z,97659.50
2022-10-22T18:48:18.726Z,97660.97
2022-10-22T18:50:45.353Z,97663.00
2022-10-22T18:53:12.607Z,97658.69
2022-10-22T18:55:44.059Z,97659.03
2022-10-22T18:58:10.435Z,97658.78
2022-10-22T19:00:36.905Z,97662.38
2022-10-22T19:03:05.923Z,97667.81
2022-10-22T19:05:34.809Z,97674.56
2022-10-22T19:08:03.750Z,97666.00
2022-10-22T19:10:30.119Z,97671.94
2022-10-22T19:12:56.563Z,97667.44
2022-10-22T19:17:57.504Z,97674.41
2022-10-22T19:20:23.922Z,97676.81
2022-10-22T19:22:50.261Z,97685.34
2022-10-22T19:25:16.675Z,97681.72
2022-10-22T19:27:43.435Z,97686.13
2022-10-22T19:30:10.439Z,97680.09
2022-10-22T19:32:36.876Z,97673.91
2022-10-22T19:35:08.163Z,97671.19
2022-10-22T19:37:40.185Z,97662.00
2022-10-22T19:40:07.499Z,97663.16
2022-10-22T19:42:34.212Z,97656.47
2022-10-22T19:45:02.925Z,97666.69
2022-10-22T19:47:29.294Z,97661.59
2022-10-22T19:49:58.294Z,97671.88
2022-10-22T19:52:24.744Z,97672.25
2022-10-22T19:54:51.154Z,97672.41
2022-10-22T19:57:18.360Z,97674.28
2022-10-22T19:59:45.202Z,97674.72
2022-10-22T20:02:18.095Z,97673.97
2022-10-22T20:04:49.116Z,97678.19
2022-10-22T20:07:16.364Z,97678.19
2022-10-22T20:09:42.743Z,97682.53
2022-10-22T20:12:09.253Z,97680.56
2022-10-22T20:14:35.756Z,97675.34
2022-10-22T20:17:02.125Z,97677.16
2022-10-22T20:19:29.334Z,97669.97
2022-10-22T20:21:55.795Z,97668.38
2022-10-22T20:24:22.178Z,97670.28
2022-10-22T20:26:48.632Z,97672.97
2022-10-22T20:29:15.916Z,97669.31
2022-10-22T20:31:42.263Z,97671.13
2022-10-22T20:34:09.220Z,97677.16
2022-10-22T20:36:35.638Z,97678.94
2022-10-22T20:39:09.094Z,97685.81
2022-10-22T20:41:37.777Z,97679.88
2022-10-22T20:44:04.265Z,97681.97
2022-10-22T20:46:31.683Z,97680.09
2022-10-22T20:49:03.162Z,97674.66
2022-10-22T20:51:29.518Z,97679.03
2022-10-22T20:53:58.406Z,97680.94
2022-10-22T20:56:25.184Z,97682.72
2022-10-22T20:58:56.597Z,97686.78
2022-10-22T21:01:28.402Z,97688.84
2022-10-22T21:03:57.247Z,97685.47
2022-10-22T21:06:23.684Z,97690.09
2022-10-22T21:08:50.725Z,97694.13
2022-10-22T21:11:17.759Z,97689.88
2022-10-22T21:13:44.218Z,97690.16
2022-10-22T21:16:11.795Z,97686.09
2022-10-22T21:18:38.216Z,97679.31
2022-10-22T21:21:05.678Z,97680.16
2022-10-22T21:23:35.328Z,97682.84
2022-10-22T21:26:02.041Z,97694.34
2022-10-22T21:30:54.790Z,97699.47
2022-10-22T21:33:21.114Z,97703.94
2022-10-22T21:35:54.918Z,97709.06
2022-10-22T21:38:22.037Z,97704.78
2022-10-22T21:40:48.458Z,97703.19
2022-10-22T21:43:18.146Z,97698.81
2022-10-22T21:45:45.087Z,97693.41
2022-10-22T21:48:16.917Z,97687.53
2022-10-22T21:50:44.002Z,97681.91
2022-10-22T21:53:14.340Z,97678.56
2022-10-22T21:55:41.154Z,97675.63
2022-10-22T21:58:08.137Z,97678.44
2022-10-22T22:00:37.167Z,97673.75
2022-10-22T22:03:03.652Z,97675.22
2022-10-22T22:05:29.989Z,97676.28
2022-10-22T22:07:56.468Z,97678.78
2022-10-22T22:10:22.924Z,97673.97
2022-10-22T22:12:50.580Z,97673.72
2022-10-22T22:15:16.955Z,97673.16
2022-10-22T22:17:43.371Z,97674.19
2022-10-22T22:20:10.935Z,97675.91
2022-10-22T22:22:40.011Z,97672.97
2022-10-22T22:25:06.687Z,97670.16
2022-10-22T22:27:35.541Z,97677.34
2022-10-22T22:30:01.901Z,97679.31
2022-10-22T22:32:28.227Z,97676.56
2022-10-22T22:34:54.551Z,97672.13
2022-10-22T22:37:20.891Z,97680.69
2022-10-22T22:42:15.972Z,97663.47
2022-10-22T22:44:42.259Z,97656.06
2022-10-22T22:47:08.613Z,97660.72
2022-10-22T22:49:36.184Z,97655.91
2022-10-22T22:52:03.056Z,97668.94
2022-10-22T22:54:29.632Z,97663.28
2022-10-22T22:56:55.978Z,97660.91
2022-10-22T22:59:22.315Z,97662.31
2022-10-22T23:01:49.598Z,97662.09
2022-10-22T23:04:19.294Z,97658.97
2022-10-22T23:06:46.044Z,97662.69
2022-10-22T23:09:13.698Z,97665.59
2022-10-22T23:11:40.991Z,97651.19
2022-10-22T23:14:08.207Z,97652.88
2022-10-22T23:16:36.649Z,97650.66
2022-10-22T23:19:03.407Z,97657.88
2022-10-22T23:21:31.374Z,97658.81
2022-10-22T23:23:59.336Z,97647.84
2022-10-22T23:26:29.502Z,97642.53
2022-10-22T23:29:01.752Z,97641.22
2022-10-22T23:31:28.077Z,97650.63
2022-10-22T23:33:54.457Z,97644.38
2022-10-22T23:36:20.816Z,97653.75
2022-10-22T23:38:47.424Z,97653.22
2022-10-22T23:41:13.776Z,97651.91
2022-10-22T23:43:43.000Z,97648.22
2022-10-22T23:46:10.315Z,97644.06
2022-10-22T23:48:37.074Z,97642.31
2022-10-22T23:51:04.321Z,97638.41
2022-10-22T23:53:30.757Z,97642.34
2022-10-22T23:55:57.051Z,97639.34
2022-10-22T23:58:23.358Z,97640.56
